sensor_id;sensor_type;location;lat;lon;timestamp;P1;durP1;ratioP1;P2;durP2;ratioP2
63807;SDS011;49961;43.970;22.868;2023-05-10T00:00:37;8.77;;;5.90;;
63807;SDS011;49961;43.970;22.868;2023-05-10T00:01:37;7.47;;;5.87;;
63807;SDS011;49961;43.970;22.868;2023-05-10T00:02:37;7.47;;;5.77;;
63807;SDS011;49961;43.970;22.868;2023-05-10T00:03:38;7.10;;;6.40;;
63807;SDS011;49961;43.970;22.868;2023-05-10T00:04:39;8.50;;;5.90;;
63807;SDS011;49961;43.970;22.868;2023-05-10T00:05:40;8.27;;;5.60;;
63807;SDS011;49961;43.970;22.868;2023-05-10T00:06:40;6.90;;;6.10;;
63807;SDS011;49961;43.970;22.868;2023-05-10T00:07:40;9.57;;;6.53;;
63807;SDS011;49961;43.970;22.868;2023-05-10T00:08:44;6.57;;;5.93;;
63807;SDS011;49961;43.970;22.868;2023-05-10T00:09:45;10.77;;;6.57;;
63807;SDS011;49961;43.970;22.868;2023-05-10T00:10:45;7.43;;;6.33;;
63807;SDS011;49961;43.970;22.868;2023-05-10T00:11:46;6.77;;;5.93;;
63807;SDS011;49961;43.970;22.868;2023-05-10T00:12:46;8.60;;;6.37;;
63807;SDS011;49961;43.970;22.868;2023-05-10T00:13:46;7.37;;;6.07;;
63807;SDS011;49961;43.970;22.868;2023-05-10T00:14:47;9.30;;;6.20;;
63807;SDS011;49961;43.970;22.868;2023-05-10T00:15:47;8.03;;;6.47;;
63807;SDS011;49961;43.970;22.868;2023-05-10T00:16:48;7.93;;;5.97;;
63807;SDS011;49961;43.970;22.868;2023-05-10T00:17:48;7.60;;;6.10;;
63807;SDS011;49961;43.970;22.868;2023-05-10T00:18:49;9.13;;;6.10;;
63807;SDS011;49961;43.970;22.868;2023-05-10T00:19:49;8.07;;;6.17;;
63807;SDS011;49961;43.970;22.868;2023-05-10T00:20:50;9.40;;;6.73;;
63807;SDS011;49961;43.970;22.868;2023-05-10T00:21:50;8.30;;;6.70;;
63807;SDS011;49961;43.970;22.868;2023-05-10T00:22:51;7.20;;;6.50;;
63807;SDS011;49961;43.970;22.868;2023-05-10T00:23:51;10.13;;;6.47;;
63807;SDS011;49961;43.970;22.868;2023-05-10T00:24:52;7.53;;;6.73;;
63807;SDS011;49961;43.970;22.868;2023-05-10T00:25:52;10.53;;;7.27;;
63807;SDS011;49961;43.970;22.868;2023-05-10T00:26:52;9.20;;;7.00;;
63807;SDS011;49961;43.970;22.868;2023-05-10T00:27:53;7.50;;;6.57;;
63807;SDS011;49961;43.970;22.868;2023-05-10T00:28:55;10.03;;;6.43;;
63807;SDS011;49961;43.970;22.868;2023-05-10T00:29:56;7.97;;;6.37;;
63807;SDS011;49961;43.970;22.868;2023-05-10T00:30:57;9.23;;;6.83;;
63807;SDS011;49961;43.970;22.868;2023-05-10T00:31:57;7.43;;;6.63;;
63807;SDS011;49961;43.970;22.868;2023-05-10T00:32:57;9.33;;;6.43;;
63807;SDS011;49961;43.970;22.868;2023-05-10T00:33:58;8.47;;;6.87;;
63807;SDS011;49961;43.970;22.868;2023-05-10T00:34:58;9.50;;;7.17;;
63807;SDS011;49961;43.970;22.868;2023-05-10T00:35:59;8.20;;;6.50;;
63807;SDS011;49961;43.970;22.868;2023-05-10T00:36:59;9.93;;;6.80;;
63807;SDS011;49961;43.970;22.868;2023-05-10T00:38:00;7.83;;;6.40;;
63807;SDS011;49961;43.970;22.868;2023-05-10T00:39:00;8.63;;;6.27;;
63807;SDS011;49961;43.970;22.868;2023-05-10T00:40:01;7.83;;;6.53;;
63807;SDS011;49961;43.970;22.868;2023-05-10T00:41:01;8.37;;;6.87;;
63807;SDS011;49961;43.970;22.868;2023-05-10T00:42:01;6.80;;;6.10;;
63807;SDS011;49961;43.970;22.868;2023-05-10T00:43:02;7.97;;;6.23;;
63807;SDS011;49961;43.970;22.868;2023-05-10T00:44:03;8.60;;;6.30;;
63807;SDS011;49961;43.970;22.868;2023-05-10T00:45:04;10.30;;;7.13;;
63807;SDS011;49961;43.970;22.868;2023-05-10T00:46:05;7.30;;;6.37;;
63807;SDS011;49961;43.970;22.868;2023-05-10T00:47:06;8.07;;;6.23;;
63807;SDS011;49961;43.970;22.868;2023-05-10T00:48:06;7.60;;;6.27;;
63807;SDS011;49961;43.970;22.868;2023-05-10T00:49:07;7.43;;;6.70;;
63807;SDS011;49961;43.970;22.868;2023-05-10T00:50:08;8.63;;;6.40;;
63807;SDS011;49961;43.970;22.868;2023-05-10T00:51:09;7.50;;;6.50;;
63807;SDS011;49961;43.970;22.868;2023-05-10T00:52:10;8.00;;;6.27;;
63807;SDS011;49961;43.970;22.868;2023-05-10T00:53:10;7.73;;;6.90;;
63807;SDS011;49961;43.970;22.868;2023-05-10T00:54:11;9.47;;;6.40;;
63807;SDS011;49961;43.970;22.868;2023-05-10T00:55:13;8.20;;;5.87;;
63807;SDS011;49961;43.970;22.868;2023-05-10T00:56:14;9.20;;;6.27;;
63807;SDS011;49961;43.970;22.868;2023-05-10T00:57:15;7.73;;;6.53;;
63807;SDS011;49961;43.970;22.868;2023-05-10T00:58:15;7.83;;;6.53;;
63807;SDS011;49961;43.970;22.868;2023-05-10T00:59:16;6.97;;;6.27;;
63807;SDS011;49961;43.970;22.868;2023-05-10T01:00:18;8.87;;;6.50;;
63807;SDS011;49961;43.970;22.868;2023-05-10T01:01:19;6.57;;;5.73;;
63807;SDS011;49961;43.970;22.868;2023-05-10T01:02:20;7.90;;;6.13;;
63807;SDS011;49961;43.970;22.868;2023-05-10T01:03:20;8.27;;;6.70;;
63807;SDS011;49961;43.970;22.868;2023-05-10T01:04:21;7.63;;;6.27;;
63807;SDS011;49961;43.970;22.868;2023-05-10T01:05:25;8.63;;;6.80;;
63807;SDS011;49961;43.970;22.868;2023-05-10T01:06:27;8.63;;;6.30;;
63807;SDS011;49961;43.970;22.868;2023-05-10T01:07:27;8.53;;;6.17;;
63807;SDS011;49961;43.970;22.868;2023-05-10T01:08:28;10.53;;;6.20;;
63807;SDS011;49961;43.970;22.868;2023-05-10T01:09:28;8.87;;;6.50;;
63807;SDS011;49961;43.970;22.868;2023-05-10T01:10:30;9.70;;;6.77;;
63807;SDS011;49961;43.970;22.868;2023-05-10T01:11:31;9.20;;;6.40;;
63807;SDS011;49961;43.970;22.868;2023-05-10T01:12:31;8.83;;;6.27;;
63807;SDS011;49961;43.970;22.868;2023-05-10T01:13:34;7.30;;;6.50;;
63807;SDS011;49961;43.970;22.868;2023-05-10T01:14:37;8.37;;;6.20;;
63807;SDS011;49961;43.970;22.868;2023-05-10T01:15:37;6.97;;;6.13;;
63807;SDS011;49961;43.970;22.868;2023-05-10T01:16:40;9.73;;;6.57;;
63807;SDS011;49961;43.970;22.868;2023-05-10T01:17:42;8.33;;;6.13;;
63807;SDS011;49961;43.970;22.868;2023-05-10T01:18:46;8.73;;;6.60;;
63807;SDS011;49961;43.970;22.868;2023-05-10T01:19:48;9.83;;;7.07;;
63807;SDS011;49961;43.970;22.868;2023-05-10T01:20:53;8.33;;;6.53;;
63807;SDS011;49961;43.970;22.868;2023-05-10T01:23:53;8.63;;;6.40;;
63807;SDS011;49961;43.970;22.868;2023-05-10T01:26:39;10.03;;;6.47;;
63807;SDS011;49961;43.970;22.868;2023-05-10T01:29:59;8.77;;;6.00;;
63807;SDS011;49961;43.970;22.868;2023-05-10T01:33:54;9.50;;;6.30;;
63807;SDS011;49961;43.970;22.868;2023-05-10T01:35:06;8.83;;;6.67;;
63807;SDS011;49961;43.970;22.868;2023-05-10T01:36:31;7.27;;;6.53;;
63807;SDS011;49961;43.970;22.868;2023-05-10T01:37:50;7.70;;;6.63;;
63807;SDS011;49961;43.970;22.868;2023-05-10T01:39:06;10.37;;;7.33;;
63807;SDS011;49961;43.970;22.868;2023-05-10T01:40:17;7.30;;;6.60;;
63807;SDS011;49961;43.970;22.868;2023-05-10T01:43:03;8.43;;;6.37;;
63807;SDS011;49961;43.970;22.868;2023-05-10T01:44:12;8.10;;;6.10;;
63807;SDS011;49961;43.970;22.868;2023-05-10T01:45:33;9.83;;;6.60;;
63807;SDS011;49961;43.970;22.868;2023-05-10T01:46:39;9.47;;;6.73;;
63807;SDS011;49961;43.970;22.868;2023-05-10T01:47:44;7.37;;;6.67;;
63807;SDS011;49961;43.970;22.868;2023-05-10T01:48:54;7.93;;;6.63;;
63807;SDS011;49961;43.970;22.868;2023-05-10T01:49:58;7.50;;;6.73;;
63807;SDS011;49961;43.970;22.868;2023-05-10T01:51:02;8.37;;;6.87;;
63807;SDS011;49961;43.970;22.868;2023-05-10T01:52:12;7.77;;;6.97;;
63807;SDS011;49961;43.970;22.868;2023-05-10T01:53:17;8.87;;;6.93;;
63807;SDS011;49961;43.970;22.868;2023-05-10T01:54:19;8.30;;;7.27;;
63807;SDS011;49961;43.970;22.868;2023-05-10T01:55:22;8.57;;;7.27;;
63807;SDS011;49961;43.970;22.868;2023-05-10T01:56:26;8.13;;;6.87;;
63807;SDS011;49961;43.970;22.868;2023-05-10T01:57:31;8.10;;;6.50;;
63807;SDS011;49961;43.970;22.868;2023-05-10T01:58:34;8.00;;;7.20;;
63807;SDS011;49961;43.970;22.868;2023-05-10T01:59:36;9.00;;;6.73;;
63807;SDS011;49961;43.970;22.868;2023-05-10T02:00:42;8.87;;;6.80;;
63807;SDS011;49961;43.970;22.868;2023-05-10T02:01:44;9.77;;;7.03;;
63807;SDS011;49961;43.970;22.868;2023-05-10T02:02:47;8.80;;;6.70;;
63807;SDS011;49961;43.970;22.868;2023-05-10T02:03:49;8.00;;;7.20;;
63807;SDS011;49961;43.970;22.868;2023-05-10T02:04:51;8.00;;;7.20;;
63807;SDS011;49961;43.970;22.868;2023-05-10T02:05:53;9.03;;;6.80;;
63807;SDS011;49961;43.970;22.868;2023-05-10T02:06:55;10.00;;;7.60;;
63807;SDS011;49961;43.970;22.868;2023-05-10T02:07:57;8.83;;;7.40;;
63807;SDS011;49961;43.970;22.868;2023-05-10T02:09:01;8.80;;;7.30;;
63807;SDS011;49961;43.970;22.868;2023-05-10T02:10:04;8.73;;;6.77;;
63807;SDS011;49961;43.970;22.868;2023-05-10T02:11:06;8.13;;;7.33;;
63807;SDS011;49961;43.970;22.868;2023-05-10T02:12:07;10.60;;;7.50;;
63807;SDS011;49961;43.970;22.868;2023-05-10T02:13:09;12.07;;;7.40;;
63807;SDS011;49961;43.970;22.868;2023-05-10T02:14:11;8.20;;;7.40;;
63807;SDS011;49961;43.970;22.868;2023-05-10T02:15:16;11.27;;;6.97;;
63807;SDS011;49961;43.970;22.868;2023-05-10T02:16:20;9.00;;;7.17;;
63807;SDS011;49961;43.970;22.868;2023-05-10T02:17:25;9.93;;;7.63;;
63807;SDS011;49961;43.970;22.868;2023-05-10T02:18:26;9.00;;;7.57;;
63807;SDS011;49961;43.970;22.868;2023-05-10T02:19:27;8.60;;;7.70;;
63807;SDS011;49961;43.970;22.868;2023-05-10T02:20:30;11.40;;;7.67;;
63807;SDS011;49961;43.970;22.868;2023-05-10T02:21:32;9.37;;;7.10;;
63807;SDS011;49961;43.970;22.868;2023-05-10T02:22:33;9.50;;;7.90;;
63807;SDS011;49961;43.970;22.868;2023-05-10T02:23:36;8.50;;;7.67;;
63807;SDS011;49961;43.970;22.868;2023-05-10T02:24:38;10.30;;;8.23;;
63807;SDS011;49961;43.970;22.868;2023-05-10T02:25:39;8.73;;;7.90;;
63807;SDS011;49961;43.970;22.868;2023-05-10T02:26:43;11.23;;;7.73;;
63807;SDS011;49961;43.970;22.868;2023-05-10T02:27:45;8.63;;;7.13;;
63807;SDS011;49961;43.970;22.868;2023-05-10T02:28:48;8.93;;;8.00;;
63807;SDS011;49961;43.970;22.868;2023-05-10T02:29:50;11.40;;;8.23;;
63807;SDS011;49961;43.970;22.868;2023-05-10T02:30:51;10.30;;;8.07;;
63807;SDS011;49961;43.970;22.868;2023-05-10T02:31:54;8.93;;;7.57;;
63807;SDS011;49961;43.970;22.868;2023-05-10T02:32:55;10.77;;;8.07;;
63807;SDS011;49961;43.970;22.868;2023-05-10T02:33:57;10.33;;;8.00;;
63807;SDS011;49961;43.970;22.868;2023-05-10T02:34:58;9.20;;;8.07;;
63807;SDS011;49961;43.970;22.868;2023-05-10T02:36:01;14.23;;;8.43;;
63807;SDS011;49961;43.970;22.868;2023-05-10T02:37:03;9.30;;;8.03;;
63807;SDS011;49961;43.970;22.868;2023-05-10T02:38:05;9.10;;;8.17;;
63807;SDS011;49961;43.970;22.868;2023-05-10T02:39:07;10.33;;;8.27;;
63807;SDS011;49961;43.970;22.868;2023-05-10T02:40:12;10.20;;;8.67;;
63807;SDS011;49961;43.970;22.868;2023-05-10T02:41:14;9.57;;;8.57;;
63807;SDS011;49961;43.970;22.868;2023-05-10T02:42:16;10.37;;;8.13;;
63807;SDS011;49961;43.970;22.868;2023-05-10T02:43:18;10.20;;;8.57;;
63807;SDS011;49961;43.970;22.868;2023-05-10T02:44:23;9.77;;;8.00;;
63807;SDS011;49961;43.970;22.868;2023-05-10T02:45:27;9.20;;;8.00;;
63807;SDS011;49961;43.970;22.868;2023-05-10T02:46:30;10.90;;;8.47;;
63807;SDS011;49961;43.970;22.868;2023-05-10T02:47:30;11.50;;;8.20;;
63807;SDS011;49961;43.970;22.868;2023-05-10T02:48:31;11.83;;;8.87;;
63807;SDS011;49961;43.970;22.868;2023-05-10T02:49:31;12.53;;;8.53;;
63807;SDS011;49961;43.970;22.868;2023-05-10T02:50:32;9.40;;;8.40;;
63807;SDS011;49961;43.970;22.868;2023-05-10T02:51:34;11.93;;;8.77;;
63807;SDS011;49961;43.970;22.868;2023-05-10T02:52:42;9.73;;;8.27;;
63807;SDS011;49961;43.970;22.868;2023-05-10T02:53:46;9.53;;;8.53;;
63807;SDS011;49961;43.970;22.868;2023-05-10T02:54:50;9.40;;;8.30;;
63807;SDS011;49961;43.970;22.868;2023-05-10T02:55:55;8.97;;;8.00;;
63807;SDS011;49961;43.970;22.868;2023-05-10T02:57:00;11.30;;;8.00;;
63807;SDS011;49961;43.970;22.868;2023-05-10T02:58:05;10.33;;;8.00;;
63807;SDS011;49961;43.970;22.868;2023-05-10T02:59:06;9.13;;;8.23;;
63807;SDS011;49961;43.970;22.868;2023-05-10T03:00:06;8.90;;;8.10;;
63807;SDS011;49961;43.970;22.868;2023-05-10T03:01:07;9.27;;;8.13;;
63807;SDS011;49961;43.970;22.868;2023-05-10T03:02:08;9.00;;;8.10;;
63807;SDS011;49961;43.970;22.868;2023-05-10T03:03:10;10.13;;;7.97;;
63807;SDS011;49961;43.970;22.868;2023-05-10T03:04:10;10.70;;;8.00;;
63807;SDS011;49961;43.970;22.868;2023-05-10T03:05:11;9.00;;;7.83;;
63807;SDS011;49961;43.970;22.868;2023-05-10T03:06:11;12.50;;;8.53;;
63807;SDS011;49961;43.970;22.868;2023-05-10T03:07:11;9.20;;;8.30;;
63807;SDS011;49961;43.970;22.868;2023-05-10T03:08:13;8.93;;;8.03;;
63807;SDS011;49961;43.970;22.868;2023-05-10T03:09:13;10.47;;;8.00;;
63807;SDS011;49961;43.970;22.868;2023-05-10T03:10:15;10.23;;;7.67;;
63807;SDS011;49961;43.970;22.868;2023-05-10T03:13:35;10.53;;;7.73;;
63807;SDS011;49961;43.970;22.868;2023-05-10T03:16:07;10.20;;;8.83;;
63807;SDS011;49961;43.970;22.868;2023-05-10T03:18:22;11.47;;;8.40;;
63807;SDS011;49961;43.970;22.868;2023-05-10T03:19:30;10.03;;;8.27;;
63807;SDS011;49961;43.970;22.868;2023-05-10T03:20:43;9.27;;;8.23;;
63807;SDS011;49961;43.970;22.868;2023-05-10T03:21:49;9.73;;;8.43;;
63807;SDS011;49961;43.970;22.868;2023-05-10T03:22:53;9.70;;;8.57;;
63807;SDS011;49961;43.970;22.868;2023-05-10T03:24:05;9.97;;;8.40;;
63807;SDS011;49961;43.970;22.868;2023-05-10T03:25:08;9.57;;;8.57;;
63807;SDS011;49961;43.970;22.868;2023-05-10T03:26:17;8.50;;;7.63;;
63807;SDS011;49961;43.970;22.868;2023-05-10T03:27:21;10.50;;;8.30;;
63807;SDS011;49961;43.970;22.868;2023-05-10T03:28:23;9.30;;;8.37;;
63807;SDS011;49961;43.970;22.868;2023-05-10T03:29:26;12.53;;;8.90;;
63807;SDS011;49961;43.970;22.868;2023-05-10T03:30:29;10.40;;;8.90;;
63807;SDS011;49961;43.970;22.868;2023-05-10T03:31:32;9.90;;;8.87;;
63807;SDS011;49961;43.970;22.868;2023-05-10T03:32:32;9.73;;;8.50;;
63807;SDS011;49961;43.970;22.868;2023-05-10T03:33:34;10.23;;;8.20;;
63807;SDS011;49961;43.970;22.868;2023-05-10T03:34:35;10.77;;;9.20;;
63807;SDS011;49961;43.970;22.868;2023-05-10T03:35:41;10.47;;;8.47;;
63807;SDS011;49961;43.970;22.868;2023-05-10T03:36:42;12.63;;;8.87;;
63807;SDS011;49961;43.970;22.868;2023-05-10T03:37:42;9.47;;;8.40;;
63807;SDS011;49961;43.970;22.868;2023-05-10T03:38:43;11.77;;;8.80;;
63807;SDS011;49961;43.970;22.868;2023-05-10T03:39:43;9.47;;;8.00;;
63807;SDS011;49961;43.970;22.868;2023-05-10T03:40:44;9.63;;;8.47;;
63807;SDS011;49961;43.970;22.868;2023-05-10T03:41:44;12.47;;;9.27;;
63807;SDS011;49961;43.970;22.868;2023-05-10T03:42:45;9.00;;;8.10;;
63807;SDS011;49961;43.970;22.868;2023-05-10T03:43:45;13.17;;;8.53;;
63807;SDS011;49961;43.970;22.868;2023-05-10T03:44:45;10.97;;;8.70;;
63807;SDS011;49961;43.970;22.868;2023-05-10T03:45:46;8.83;;;7.93;;
63807;SDS011;49961;43.970;22.868;2023-05-10T03:46:46;9.63;;;8.13;;
63807;SDS011;49961;43.970;22.868;2023-05-10T03:47:47;10.17;;;8.17;;
63807;SDS011;49961;43.970;22.868;2023-05-10T03:48:47;10.67;;;8.23;;
63807;SDS011;49961;43.970;22.868;2023-05-10T03:49:47;9.33;;;8.30;;
63807;SDS011;49961;43.970;22.868;2023-05-10T03:50:48;9.13;;;8.17;;
63807;SDS011;49961;43.970;22.868;2023-05-10T03:51:49;10.40;;;7.97;;
63807;SDS011;49961;43.970;22.868;2023-05-10T03:52:49;9.50;;;7.90;;
63807;SDS011;49961;43.970;22.868;2023-05-10T03:53:50;10.47;;;7.70;;
63807;SDS011;49961;43.970;22.868;2023-05-10T03:54:50;10.77;;;8.30;;
63807;SDS011;49961;43.970;22.868;2023-05-10T03:55:51;10.27;;;8.00;;
63807;SDS011;49961;43.970;22.868;2023-05-10T03:56:51;10.13;;;7.93;;
63807;SDS011;49961;43.970;22.868;2023-05-10T03:57:52;9.77;;;8.50;;
63807;SDS011;49961;43.970;22.868;2023-05-10T03:58:53;11.23;;;8.27;;
63807;SDS011;49961;43.970;22.868;2023-05-10T03:59:54;8.83;;;7.80;;
63807;SDS011;49961;43.970;22.868;2023-05-10T04:00:54;9.93;;;8.20;;
63807;SDS011;49961;43.970;22.868;2023-05-10T04:01:55;10.93;;;8.43;;
63807;SDS011;49961;43.970;22.868;2023-05-10T04:02:56;9.37;;;8.37;;
63807;SDS011;49961;43.970;22.868;2023-05-10T04:03:56;10.37;;;8.23;;
63807;SDS011;49961;43.970;22.868;2023-05-10T04:04:56;9.50;;;8.30;;
63807;SDS011;49961;43.970;22.868;2023-05-10T04:06:00;8.90;;;8.00;;
63807;SDS011;49961;43.970;22.868;2023-05-10T04:07:01;11.10;;;8.23;;
63807;SDS011;49961;43.970;22.868;2023-05-10T04:08:03;12.50;;;8.40;;
63807;SDS011;49961;43.970;22.868;2023-05-10T04:09:04;11.70;;;7.90;;
63807;SDS011;49961;43.970;22.868;2023-05-10T04:10:04;9.00;;;8.10;;
63807;SDS011;49961;43.970;22.868;2023-05-10T04:11:09;9.53;;;8.13;;
63807;SDS011;49961;43.970;22.868;2023-05-10T04:12:10;10.37;;;8.50;;
63807;SDS011;49961;43.970;22.868;2023-05-10T04:13:11;9.90;;;8.20;;
63807;SDS011;49961;43.970;22.868;2023-05-10T04:14:11;10.17;;;8.30;;
63807;SDS011;49961;43.970;22.868;2023-05-10T04:15:11;9.53;;;8.10;;
63807;SDS011;49961;43.970;22.868;2023-05-10T04:16:12;10.13;;;7.90;;
63807;SDS011;49961;43.970;22.868;2023-05-10T04:17:12;9.60;;;8.37;;
63807;SDS011;49961;43.970;22.868;2023-05-10T04:18:13;9.67;;;8.40;;
63807;SDS011;49961;43.970;22.868;2023-05-10T04:19:13;9.87;;;8.50;;
63807;SDS011;49961;43.970;22.868;2023-05-10T04:20:14;8.90;;;7.93;;
63807;SDS011;49961;43.970;22.868;2023-05-10T04:21:14;9.53;;;8.20;;
63807;SDS011;49961;43.970;22.868;2023-05-10T04:22:15;9.47;;;8.47;;
63807;SDS011;49961;43.970;22.868;2023-05-10T04:23:15;9.40;;;8.13;;
63807;SDS011;49961;43.970;22.868;2023-05-10T04:24:16;9.63;;;8.33;;
63807;SDS011;49961;43.970;22.868;2023-05-10T04:25:17;9.63;;;8.67;;
63807;SDS011;49961;43.970;22.868;2023-05-10T04:26:17;8.97;;;7.97;;
63807;SDS011;49961;43.970;22.868;2023-05-10T04:27:17;9.57;;;8.07;;
63807;SDS011;49961;43.970;22.868;2023-05-10T04:28:18;10.30;;;8.27;;
63807;SDS011;49961;43.970;22.868;2023-05-10T04:29:18;8.93;;;7.70;;
63807;SDS011;49961;43.970;22.868;2023-05-10T04:30:19;10.27;;;8.00;;
63807;SDS011;49961;43.970;22.868;2023-05-10T04:31:19;8.53;;;7.57;;
63807;SDS011;49961;43.970;22.868;2023-05-10T04:32:20;9.83;;;8.10;;
63807;SDS011;49961;43.970;22.868;2023-05-10T04:33:20;8.90;;;7.83;;
63807;SDS011;49961;43.970;22.868;2023-05-10T04:34:20;9.00;;;7.93;;
63807;SDS011;49961;43.970;22.868;2023-05-10T04:35:21;9.60;;;7.40;;
63807;SDS011;49961;43.970;22.868;2023-05-10T04:36:21;8.40;;;7.60;;
63807;SDS011;49961;43.970;22.868;2023-05-10T04:37:22;10.33;;;7.87;;
63807;SDS011;49961;43.970;22.868;2023-05-10T04:38:23;11.03;;;8.27;;
63807;SDS011;49961;43.970;22.868;2023-05-10T04:39:23;8.90;;;8.10;;
63807;SDS011;49961;43.970;22.868;2023-05-10T04:40:23;9.57;;;7.73;;
63807;SDS011;49961;43.970;22.868;2023-05-10T04:41:24;10.90;;;8.80;;
63807;SDS011;49961;43.970;22.868;2023-05-10T04:42:25;9.00;;;8.10;;
63807;SDS011;49961;43.970;22.868;2023-05-10T04:43:26;9.60;;;7.97;;
63807;SDS011;49961;43.970;22.868;2023-05-10T04:44:26;11.27;;;8.13;;
63807;SDS011;49961;43.970;22.868;2023-05-10T04:45:26;9.47;;;8.00;;
63807;SDS011;49961;43.970;22.868;2023-05-10T04:46:27;10.83;;;8.07;;
63807;SDS011;49961;43.970;22.868;2023-05-10T04:47:27;10.67;;;8.07;;
63807;SDS011;49961;43.970;22.868;2023-05-10T04:48:28;9.67;;;7.73;;
63807;SDS011;49961;43.970;22.868;2023-05-10T04:49:28;11.37;;;7.93;;
63807;SDS011;49961;43.970;22.868;2023-05-10T04:50:29;8.83;;;7.93;;
63807;SDS011;49961;43.970;22.868;2023-05-10T04:51:30;9.67;;;7.70;;
63807;SDS011;49961;43.970;22.868;2023-05-10T04:52:31;11.40;;;7.90;;
63807;SDS011;49961;43.970;22.868;2023-05-10T04:53:32;10.77;;;7.87;;
63807;SDS011;49961;43.970;22.868;2023-05-10T04:54:32;9.50;;;7.80;;
63807;SDS011;49961;43.970;22.868;2023-05-10T04:55:32;12.20;;;7.87;;
63807;SDS011;49961;43.970;22.868;2023-05-10T04:56:33;11.80;;;8.60;;
63807;SDS011;49961;43.970;22.868;2023-05-10T04:57:33;8.30;;;7.40;;
63807;SDS011;49961;43.970;22.868;2023-05-10T04:58:34;10.10;;;7.80;;
63807;SDS011;49961;43.970;22.868;2023-05-10T04:59:35;10.43;;;7.63;;
63807;SDS011;49961;43.970;22.868;2023-05-10T05:00:37;11.47;;;7.40;;
63807;SDS011;49961;43.970;22.868;2023-05-10T05:01:37;9.93;;;7.70;;
63807;SDS011;49961;43.970;22.868;2023-05-10T05:02:38;8.67;;;7.43;;
63807;SDS011;49961;43.970;22.868;2023-05-10T05:03:38;7.97;;;7.17;;
63807;SDS011;49961;43.970;22.868;2023-05-10T05:04:38;9.80;;;7.53;;
63807;SDS011;49961;43.970;22.868;2023-05-10T05:05:39;8.57;;;7.23;;
63807;SDS011;49961;43.970;22.868;2023-05-10T05:06:47;7.73;;;7.00;;
63807;SDS011;49961;43.970;22.868;2023-05-10T05:07:47;9.03;;;7.27;;
63807;SDS011;49961;43.970;22.868;2023-05-10T05:08:48;8.57;;;7.70;;
63807;SDS011;49961;43.970;22.868;2023-05-10T05:09:49;8.07;;;7.33;;
63807;SDS011;49961;43.970;22.868;2023-05-10T05:10:49;8.10;;;7.30;;
63807;SDS011;49961;43.970;22.868;2023-05-10T05:11:50;10.00;;;7.90;;
63807;SDS011;49961;43.970;22.868;2023-05-10T05:12:50;9.43;;;7.37;;
63807;SDS011;49961;43.970;22.868;2023-05-10T05:13:51;9.83;;;7.70;;
63807;SDS011;49961;43.970;22.868;2023-05-10T05:14:51;8.00;;;7.13;;
63807;SDS011;49961;43.970;22.868;2023-05-10T05:15:52;9.07;;;7.43;;
63807;SDS011;49961;43.970;22.868;2023-05-10T05:16:53;7.43;;;6.67;;
63807;SDS011;49961;43.970;22.868;2023-05-10T05:17:54;8.03;;;7.03;;
63807;SDS011;49961;43.970;22.868;2023-05-10T05:18:54;11.10;;;7.37;;
63807;SDS011;49961;43.970;22.868;2023-05-10T05:19:55;11.07;;;7.40;;
63807;SDS011;49961;43.970;22.868;2023-05-10T05:20:56;8.33;;;6.90;;
63807;SDS011;49961;43.970;22.868;2023-05-10T05:21:56;9.07;;;6.90;;
63807;SDS011;49961;43.970;22.868;2023-05-10T05:22:57;11.20;;;7.33;;
63807;SDS011;49961;43.970;22.868;2023-05-10T05:23:57;9.07;;;7.30;;
63807;SDS011;49961;43.970;22.868;2023-05-10T05:24:57;7.20;;;6.50;;
63807;SDS011;49961;43.970;22.868;2023-05-10T05:25:58;11.87;;;7.23;;
63807;SDS011;49961;43.970;22.868;2023-05-10T05:26:58;8.83;;;6.60;;
63807;SDS011;49961;43.970;22.868;2023-05-10T05:27:59;9.87;;;6.83;;
63807;SDS011;49961;43.970;22.868;2023-05-10T05:28:59;7.60;;;6.80;;
63807;SDS011;49961;43.970;22.868;2023-05-10T05:30:00;12.30;;;7.10;;
63807;SDS011;49961;43.970;22.868;2023-05-10T05:31:00;7.57;;;6.50;;
63807;SDS011;49961;43.970;22.868;2023-05-10T05:32:01;7.53;;;6.23;;
63807;SDS011;49961;43.970;22.868;2023-05-10T05:33:01;7.03;;;6.10;;
63807;SDS011;49961;43.970;22.868;2023-05-10T05:34:01;8.20;;;6.80;;
63807;SDS011;49961;43.970;22.868;2023-05-10T05:35:02;7.70;;;6.87;;
63807;SDS011;49961;43.970;22.868;2023-05-10T05:36:03;9.87;;;6.63;;
63807;SDS011;49961;43.970;22.868;2023-05-10T05:37:05;7.20;;;6.10;;
63807;SDS011;49961;43.970;22.868;2023-05-10T05:38:05;9.47;;;6.70;;
63807;SDS011;49961;43.970;22.868;2023-05-10T05:39:06;8.67;;;6.43;;
63807;SDS011;49961;43.970;22.868;2023-05-10T05:40:06;8.83;;;6.27;;
63807;SDS011;49961;43.970;22.868;2023-05-10T05:41:07;10.73;;;6.90;;
63807;SDS011;49961;43.970;22.868;2023-05-10T05:42:08;8.80;;;6.43;;
63807;SDS011;49961;43.970;22.868;2023-05-10T05:43:09;8.03;;;6.43;;
63807;SDS011;49961;43.970;22.868;2023-05-10T05:44:10;7.60;;;6.43;;
63807;SDS011;49961;43.970;22.868;2023-05-10T05:45:10;8.70;;;6.40;;
63807;SDS011;49961;43.970;22.868;2023-05-10T05:46:12;8.50;;;6.30;;
63807;SDS011;49961;43.970;22.868;2023-05-10T05:47:13;8.73;;;7.80;;
63807;SDS011;49961;43.970;22.868;2023-05-10T05:48:13;8.27;;;6.43;;
63807;SDS011;49961;43.970;22.868;2023-05-10T05:49:14;8.80;;;6.77;;
63807;SDS011;49961;43.970;22.868;2023-05-10T05:50:14;8.40;;;6.93;;
63807;SDS011;49961;43.970;22.868;2023-05-10T05:51:15;8.77;;;6.63;;
63807;SDS011;49961;43.970;22.868;2023-05-10T05:52:15;10.07;;;6.57;;
63807;SDS011;49961;43.970;22.868;2023-05-10T05:53:16;8.33;;;6.70;;
63807;SDS011;49961;43.970;22.868;2023-05-10T05:54:16;9.00;;;6.77;;
63807;SDS011;49961;43.970;22.868;2023-05-10T05:55:16;9.10;;;6.60;;
63807;SDS011;49961;43.970;22.868;2023-05-10T05:56:17;8.63;;;6.30;;
63807;SDS011;49961;43.970;22.868;2023-05-10T05:57:24;7.73;;;6.93;;
63807;SDS011;49961;43.970;22.868;2023-05-10T05:58:24;10.00;;;6.70;;
63807;SDS011;49961;43.970;22.868;2023-05-10T05:59:25;7.70;;;6.53;;
63807;SDS011;49961;43.970;22.868;2023-05-10T06:00:26;9.00;;;7.03;;
63807;SDS011;49961;43.970;22.868;2023-05-10T06:01:27;9.73;;;6.93;;
63807;SDS011;49961;43.970;22.868;2023-05-10T06:02:27;9.07;;;7.10;;
63807;SDS011;49961;43.970;22.868;2023-05-10T06:03:27;7.17;;;6.37;;
63807;SDS011;49961;43.970;22.868;2023-05-10T06:04:28;10.93;;;6.80;;
63807;SDS011;49961;43.970;22.868;2023-05-10T06:05:28;10.83;;;6.70;;
63807;SDS011;49961;43.970;22.868;2023-05-10T06:06:29;8.57;;;6.40;;
63807;SDS011;49961;43.970;22.868;2023-05-10T06:07:30;8.10;;;6.90;;
63807;SDS011;49961;43.970;22.868;2023-05-10T06:08:30;9.50;;;7.33;;
63807;SDS011;49961;43.970;22.868;2023-05-10T06:09:31;7.40;;;6.70;;
63807;SDS011;49961;43.970;22.868;2023-05-10T06:10:31;7.20;;;6.50;;
63807;SDS011;49961;43.970;22.868;2023-05-10T06:11:32;9.60;;;6.70;;
63807;SDS011;49961;43.970;22.868;2023-05-10T06:12:32;8.23;;;6.57;;
63807;SDS011;49961;43.970;22.868;2023-05-10T06:13:32;8.47;;;6.77;;
63807;SDS011;49961;43.970;22.868;2023-05-10T06:14:35;7.40;;;6.63;;
63807;SDS011;49961;43.970;22.868;2023-05-10T06:15:35;7.93;;;6.60;;
63807;SDS011;49961;43.970;22.868;2023-05-10T06:16:35;10.57;;;6.17;;
63807;SDS011;49961;43.970;22.868;2023-05-10T06:17:36;8.20;;;5.90;;
63807;SDS011;49961;43.970;22.868;2023-05-10T06:18:36;7.60;;;6.03;;
63807;SDS011;49961;43.970;22.868;2023-05-10T06:19:37;8.43;;;6.70;;
63807;SDS011;49961;43.970;22.868;2023-05-10T06:20:37;8.97;;;6.23;;